sensor_id;sensor_type;location;lat;lon;timestamp;P1;durP1;ratioP1;P2;durP2;ratioP2
14092;SDS011;7123;49.468;10.992;2023-08-17T00:01:35;5.75;;;5.25;;
14092;SDS011;7123;49.468;10.992;2023-08-17T00:04:02;7.03;;;5.30;;
14092;SDS011;7123;49.468;10.992;2023-08-17T00:06:28;5.88;;;5.30;;
14092;SDS011;7123;49.468;10.992;2023-08-17T00:08:55;10.68;;;5.40;;
14092;SDS011;7123;49.468;10.992;2023-08-17T00:11:22;5.57;;;5.07;;
14092;SDS011;7123;49.468;10.992;2023-08-17T00:13:49;6.70;;;5.82;;
14092;SDS011;7123;49.468;10.992;2023-08-17T00:16:16;7.57;;;5.95;;
14092;SDS011;7123;49.468;10.992;2023-08-17T00:18:43;8.75;;;5.95;;
14092;SDS011;7123;49.468;10.992;2023-08-17T00:21:10;6.55;;;5.88;;
14092;SDS011;7123;49.468;10.992;2023-08-17T00:23:37;6.95;;;5.95;;
14092;SDS011;7123;49.468;10.992;2023-08-17T00:26:04;8.77;;;5.38;;
14092;SDS011;7123;49.468;10.992;2023-08-17T00:28:32;5.78;;;5.28;;
14092;SDS011;7123;49.468;10.992;2023-08-17T00:30:59;6.43;;;5.15;;
14092;SDS011;7123;49.468;10.992;2023-08-17T00:33:27;7.18;;;5.22;;
14092;SDS011;7123;49.468;10.992;2023-08-17T00:35:54;12.02;;;6.05;;
14092;SDS011;7123;49.468;10.992;2023-08-17T00:38:20;10.10;;;6.70;;
14092;SDS011;7123;49.468;10.992;2023-08-17T00:40:47;7.68;;;5.90;;
14092;SDS011;7123;49.468;10.992;2023-08-17T00:43:14;9.55;;;5.97;;
14092;SDS011;7123;49.468;10.992;2023-08-17T00:45:41;8.73;;;6.53;;
14092;SDS011;7123;49.468;10.992;2023-08-17T00:48:09;8.60;;;6.38;;
14092;SDS011;7123;49.468;10.992;2023-08-17T00:50:36;6.55;;;5.93;;
14092;SDS011;7123;49.468;10.992;2023-08-17T00:53:05;9.70;;;5.93;;
14092;SDS011;7123;49.468;10.992;2023-08-17T00:55:33;7.20;;;5.47;;
14092;SDS011;7123;49.468;10.992;2023-08-17T00:58:00;6.32;;;5.72;;
14092;SDS011;7123;49.468;10.992;2023-08-17T01:00:27;6.60;;;5.97;;
14092;SDS011;7123;49.468;10.992;2023-08-17T01:02:55;6.75;;;5.75;;
14092;SDS011;7123;49.468;10.992;2023-08-17T01:05:23;7.03;;;6.20;;
14092;SDS011;7123;49.468;10.992;2023-08-17T01:07:50;7.78;;;6.15;;
14092;SDS011;7123;49.468;10.992;2023-08-17T01:10:17;6.57;;;5.85;;
14092;SDS011;7123;49.468;10.992;2023-08-17T01:12:47;7.18;;;5.82;;
14092;SDS011;7123;49.468;10.992;2023-08-17T01:15:22;5.78;;;5.20;;
14092;SDS011;7123;49.468;10.992;2023-08-17T01:18:04;6.03;;;5.53;;
14092;SDS011;7123;49.468;10.992;2023-08-17T01:20:41;6.03;;;5.35;;
14092;SDS011;7123;49.468;10.992;2023-08-17T01:23:09;7.10;;;4.95;;
14092;SDS011;7123;49.468;10.992;2023-08-17T01:25:36;9.77;;;5.50;;
14092;SDS011;7123;49.468;10.992;2023-08-17T01:28:03;8.73;;;5.32;;
14092;SDS011;7123;49.468;10.992;2023-08-17T01:30:35;6.53;;;4.85;;
14092;SDS011;7123;49.468;10.992;2023-08-17T01:33:29;6.47;;;5.13;;
14092;SDS011;7123;49.468;10.992;2023-08-17T01:36:11;4.65;;;4.35;;
14092;SDS011;7123;49.468;10.992;2023-08-17T01:38:44;7.10;;;5.00;;
14092;SDS011;7123;49.468;10.992;2023-08-17T01:41:12;6.30;;;5.05;;
14092;SDS011;7123;49.468;10.992;2023-08-17T01:43:41;5.30;;;4.90;;
14092;SDS011;7123;49.468;10.992;2023-08-17T01:46:13;6.18;;;4.90;;
14092;SDS011;7123;49.468;10.992;2023-08-17T01:48:44;7.45;;;5.53;;
14092;SDS011;7123;49.468;10.992;2023-08-17T01:51:15;5.75;;;5.20;;
14092;SDS011;7123;49.468;10.992;2023-08-17T01:53:48;5.72;;;5.13;;
14092;SDS011;7123;49.468;10.992;2023-08-17T01:56:15;5.45;;;4.93;;
14092;SDS011;7123;49.468;10.992;2023-08-17T01:58:41;5.72;;;4.95;;
14092;SDS011;7123;49.468;10.992;2023-08-17T02:01:08;6.63;;;5.15;;
14092;SDS011;7123;49.468;10.992;2023-08-17T02:03:35;5.82;;;5.18;;
14092;SDS011;7123;49.468;10.992;2023-08-17T02:06:02;5.70;;;5.13;;
14092;SDS011;7123;49.468;10.992;2023-08-17T02:08:29;5.72;;;5.20;;
14092;SDS011;7123;49.468;10.992;2023-08-17T02:10:56;5.88;;;5.25;;
14092;SDS011;7123;49.468;10.992;2023-08-17T02:13:23;7.43;;;5.57;;
14092;SDS011;7123;49.468;10.992;2023-08-17T02:15:50;7.22;;;5.25;;
14092;SDS011;7123;49.468;10.992;2023-08-17T02:18:16;5.30;;;4.90;;
14092;SDS011;7123;49.468;10.992;2023-08-17T02:20:43;8.50;;;5.60;;
14092;SDS011;7123;49.468;10.992;2023-08-17T02:23:10;5.35;;;4.95;;
14092;SDS011;7123;49.468;10.992;2023-08-17T02:25:39;5.78;;;4.80;;
14092;SDS011;7123;49.468;10.992;2023-08-17T02:28:06;7.05;;;5.80;;
14092;SDS011;7123;49.468;10.992;2023-08-17T02:30:33;5.55;;;4.90;;
14092;SDS011;7123;49.468;10.992;2023-08-17T02:33:00;10.77;;;5.40;;
14092;SDS011;7123;49.468;10.992;2023-08-17T02:35:27;6.10;;;5.10;;
14092;SDS011;7123;49.468;10.992;2023-08-17T02:37:54;5.32;;;4.50;;
14092;SDS011;7123;49.468;10.992;2023-08-17T02:40:21;6.60;;;5.43;;
14092;SDS011;7123;49.468;10.992;2023-08-17T02:42:49;7.53;;;5.07;;
14092;SDS011;7123;49.468;10.992;2023-08-17T02:45:15;7.07;;;5.70;;
14092;SDS011;7123;49.468;10.992;2023-08-17T02:47:42;7.60;;;5.03;;
14092;SDS011;7123;49.468;10.992;2023-08-17T02:50:09;10.75;;;5.25;;
14092;SDS011;7123;49.468;10.992;2023-08-17T02:52:36;5.78;;;5.28;;
14092;SDS011;7123;49.468;10.992;2023-08-17T02:55:03;6.00;;;5.55;;
14092;SDS011;7123;49.468;10.992;2023-08-17T02:57:30;8.50;;;5.15;;
14092;SDS011;7123;49.468;10.992;2023-08-17T02:59:57;7.13;;;5.07;;
14092;SDS011;7123;49.468;10.992;2023-08-17T03:02:23;9.20;;;5.75;;
14092;SDS011;7123;49.468;10.992;2023-08-17T03:04:50;5.50;;;5.00;;
14092;SDS011;7123;49.468;10.992;2023-08-17T03:07:17;6.10;;;5.60;;
14092;SDS011;7123;49.468;10.992;2023-08-17T03:09:44;6.70;;;5.63;;
14092;SDS011;7123;49.468;10.992;2023-08-17T03:12:10;5.85;;;5.13;;
14092;SDS011;7123;49.468;10.992;2023-08-17T03:14:37;6.00;;;4.72;;
14092;SDS011;7123;49.468;10.992;2023-08-17T03:17:04;6.28;;;5.38;;
14092;SDS011;7123;49.468;10.992;2023-08-17T03:19:30;5.32;;;4.93;;
14092;SDS011;7123;49.468;10.992;2023-08-17T03:21:57;7.45;;;5.47;;
14092;SDS011;7123;49.468;10.992;2023-08-17T03:24:24;6.53;;;5.07;;
14092;SDS011;7123;49.468;10.992;2023-08-17T03:26:52;5.97;;;5.40;;
14092;SDS011;7123;49.468;10.992;2023-08-17T03:29:18;6.20;;;5.18;;
14092;SDS011;7123;49.468;10.992;2023-08-17T03:31:45;5.80;;;5.28;;
14092;SDS011;7123;49.468;10.992;2023-08-17T03:34:12;5.97;;;5.38;;
14092;SDS011;7123;49.468;10.992;2023-08-17T03:36:39;6.38;;;4.95;;
14092;SDS011;7123;49.468;10.992;2023-08-17T03:39:06;6.80;;;5.32;;
14092;SDS011;7123;49.468;10.992;2023-08-17T03:41:32;5.63;;;5.13;;
14092;SDS011;7123;49.468;10.992;2023-08-17T03:43:59;7.65;;;5.57;;
14092;SDS011;7123;49.468;10.992;2023-08-17T03:46:26;6.22;;;5.63;;
14092;SDS011;7123;49.468;10.992;2023-08-17T03:48:53;7.30;;;5.28;;
14092;SDS011;7123;49.468;10.992;2023-08-17T03:51:20;7.43;;;5.40;;
14092;SDS011;7123;49.468;10.992;2023-08-17T03:53:46;6.32;;;5.63;;
14092;SDS011;7123;49.468;10.992;2023-08-17T03:56:13;5.95;;;5.47;;
14092;SDS011;7123;49.468;10.992;2023-08-17T03:58:40;7.00;;;5.88;;
14092;SDS011;7123;49.468;10.992;2023-08-17T04:01:08;6.78;;;5.68;;
14092;SDS011;7123;49.468;10.992;2023-08-17T04:03:35;6.90;;;6.03;;
14092;SDS011;7123;49.468;10.992;2023-08-17T04:06:05;7.05;;;5.15;;
14092;SDS011;7123;49.468;10.992;2023-08-17T04:08:33;5.72;;;5.22;;
14092;SDS011;7123;49.468;10.992;2023-08-17T04:11:00;5.90;;;5.30;;
14092;SDS011;7123;49.468;10.992;2023-08-17T04:13:26;6.18;;;5.57;;
14092;SDS011;7123;49.468;10.992;2023-08-17T04:15:53;7.90;;;5.25;;
14092;SDS011;7123;49.468;10.992;2023-08-17T04:18:20;5.88;;;5.38;;
14092;SDS011;7123;49.468;10.992;2023-08-17T04:20:47;5.75;;;5.18;;
14092;SDS011;7123;49.468;10.992;2023-08-17T04:23:14;7.00;;;5.57;;
14092;SDS011;7123;49.468;10.992;2023-08-17T04:25:40;5.85;;;5.32;;
14092;SDS011;7123;49.468;10.992;2023-08-17T04:28:07;6.55;;;5.45;;
14092;SDS011;7123;49.468;10.992;2023-08-17T04:30:34;5.95;;;5.18;;
14092;SDS011;7123;49.468;10.992;2023-08-17T04:33:01;6.78;;;6.10;;
14092;SDS011;7123;49.468;10.992;2023-08-17T04:35:28;6.75;;;6.03;;
14092;SDS011;7123;49.468;10.992;2023-08-17T04:37:55;6.75;;;5.75;;
14092;SDS011;7123;49.468;10.992;2023-08-17T04:40:21;6.43;;;5.88;;
14092;SDS011;7123;49.468;10.992;2023-08-17T04:42:48;8.10;;;6.35;;
14092;SDS011;7123;49.468;10.992;2023-08-17T04:45:15;5.93;;;5.43;;
14092;SDS011;7123;49.468;10.992;2023-08-17T04:47:42;6.30;;;5.80;;
14092;SDS011;7123;49.468;10.992;2023-08-17T04:50:09;9.52;;;5.80;;
14092;SDS011;7123;49.468;10.992;2023-08-17T04:52:36;7.32;;;5.93;;
14092;SDS011;7123;49.468;10.992;2023-08-17T04:55:02;6.85;;;5.47;;
14092;SDS011;7123;49.468;10.992;2023-08-17T04:57:29;7.32;;;6.18;;
14092;SDS011;7123;49.468;10.992;2023-08-17T04:59:56;8.80;;;5.35;;
14092;SDS011;7123;49.468;10.992;2023-08-17T05:02:23;6.20;;;5.60;;
14092;SDS011;7123;49.468;10.992;2023-08-17T05:04:50;6.00;;;5.50;;
14092;SDS011;7123;49.468;10.992;2023-08-17T05:07:16;6.47;;;5.65;;
14092;SDS011;7123;49.468;10.992;2023-08-17T05:09:43;5.90;;;5.40;;
14092;SDS011;7123;49.468;10.992;2023-08-17T05:12:10;6.40;;;5.28;;
14092;SDS011;7123;49.468;10.992;2023-08-17T05:14:37;8.63;;;5.60;;
14092;SDS011;7123;49.468;10.992;2023-08-17T05:17:03;8.35;;;5.72;;
14092;SDS011;7123;49.468;10.992;2023-08-17T05:19:30;7.50;;;5.78;;
14092;SDS011;7123;49.468;10.992;2023-08-17T05:21:57;5.85;;;5.45;;
14092;SDS011;7123;49.468;10.992;2023-08-17T05:24:24;9.82;;;5.57;;
14092;SDS011;7123;49.468;10.992;2023-08-17T05:26:51;6.50;;;5.90;;
14092;SDS011;7123;49.468;10.992;2023-08-17T05:29:17;6.93;;;5.35;;
14092;SDS011;7123;49.468;10.992;2023-08-17T05:31:44;8.75;;;5.53;;
14092;SDS011;7123;49.468;10.992;2023-08-17T05:34:11;6.28;;;5.65;;
14092;SDS011;7123;49.468;10.992;2023-08-17T05:36:38;5.95;;;5.47;;
14092;SDS011;7123;49.468;10.992;2023-08-17T05:39:05;6.72;;;5.97;;
14092;SDS011;7123;49.468;10.992;2023-08-17T05:41:32;6.85;;;5.10;;
14092;SDS011;7123;49.468;10.992;2023-08-17T05:43:58;9.05;;;6.03;;
14092;SDS011;7123;49.468;10.992;2023-08-17T05:46:25;6.07;;;5.57;;
14092;SDS011;7123;49.468;10.992;2023-08-17T05:48:52;7.63;;;5.18;;
14092;SDS011;7123;49.468;10.992;2023-08-17T05:51:19;6.95;;;5.45;;
14092;SDS011;7123;49.468;10.992;2023-08-17T05:53:45;8.98;;;5.82;;
14092;SDS011;7123;49.468;10.992;2023-08-17T05:56:12;9.05;;;5.80;;
14092;SDS011;7123;49.468;10.992;2023-08-17T05:58:39;7.88;;;6.20;;
14092;SDS011;7123;49.468;10.992;2023-08-17T06:01:07;5.80;;;5.30;;
14092;SDS011;7123;49.468;10.992;2023-08-17T06:03:35;6.30;;;5.70;;
14092;SDS011;7123;49.468;10.992;2023-08-17T06:06:03;6.78;;;6.10;;
14092;SDS011;7123;49.468;10.992;2023-08-17T06:08:32;8.75;;;6.15;;
14092;SDS011;7123;49.468;10.992;2023-08-17T06:10:59;6.80;;;5.60;;
14092;SDS011;7123;49.468;10.992;2023-08-17T06:13:25;15.57;;;6.05;;
14092;SDS011;7123;49.468;10.992;2023-08-17T06:15:52;7.03;;;6.00;;
14092;SDS011;7123;49.468;10.992;2023-08-17T06:18:21;7.93;;;6.10;;
14092;SDS011;7123;49.468;10.992;2023-08-17T06:20:48;7.95;;;6.00;;
14092;SDS011;7123;49.468;10.992;2023-08-17T06:23:18;9.52;;;6.82;;
14092;SDS011;7123;49.468;10.992;2023-08-17T06:25:46;7.25;;;6.45;;
14092;SDS011;7123;49.468;10.992;2023-08-17T06:28:13;7.15;;;6.45;;
14092;SDS011;7123;49.468;10.992;2023-08-17T06:30:40;9.75;;;6.00;;
14092;SDS011;7123;49.468;10.992;2023-08-17T06:33:06;7.00;;;6.25;;
14092;SDS011;7123;49.468;10.992;2023-08-17T06:35:33;6.88;;;6.22;;
14092;SDS011;7123;49.468;10.992;2023-08-17T06:38:00;8.02;;;6.07;;
14092;SDS011;7123;49.468;10.992;2023-08-17T06:40:27;11.93;;;6.65;;
14092;SDS011;7123;49.468;10.992;2023-08-17T06:42:54;9.00;;;6.63;;
14092;SDS011;7123;49.468;10.992;2023-08-17T06:45:21;10.40;;;5.95;;
14092;SDS011;7123;49.468;10.992;2023-08-17T06:47:49;13.98;;;6.18;;
14092;SDS011;7123;49.468;10.992;2023-08-17T06:50:15;9.77;;;6.78;;
14092;SDS011;7123;49.468;10.992;2023-08-17T06:52:42;10.27;;;6.38;;
14092;SDS011;7123;49.468;10.992;2023-08-17T06:55:10;8.73;;;6.10;;
14092;SDS011;7123;49.468;10.992;2023-08-17T06:57:37;9.93;;;6.65;;
14092;SDS011;7123;49.468;10.992;2023-08-17T07:00:04;10.80;;;6.68;;
14092;SDS011;7123;49.468;10.992;2023-08-17T07:02:34;8.27;;;6.47;;
14092;SDS011;7123;49.468;10.992;2023-08-17T07:05:16;9.00;;;5.88;;
14092;SDS011;7123;49.468;10.992;2023-08-17T07:07:44;8.43;;;6.38;;
14092;SDS011;7123;49.468;10.992;2023-08-17T07:10:11;11.77;;;6.30;;
14092;SDS011;7123;49.468;10.992;2023-08-17T07:12:38;11.98;;;6.63;;
14092;SDS011;7123;49.468;10.992;2023-08-17T07:15:07;9.10;;;6.57;;
14092;SDS011;7123;49.468;10.992;2023-08-17T07:17:34;7.97;;;7.13;;
14092;SDS011;7123;49.468;10.992;2023-08-17T07:20:03;13.27;;;6.63;;
14092;SDS011;7123;49.468;10.992;2023-08-17T07:22:33;6.60;;;6.10;;
14092;SDS011;7123;49.468;10.992;2023-08-17T07:25:01;6.93;;;6.30;;
14092;SDS011;7123;49.468;10.992;2023-08-17T07:27:27;7.78;;;6.90;;
14092;SDS011;7123;49.468;10.992;2023-08-17T07:29:55;7.43;;;6.65;;
14092;SDS011;7123;49.468;10.992;2023-08-17T07:32:22;8.93;;;7.03;;
14092;SDS011;7123;49.468;10.992;2023-08-17T07:34:48;9.45;;;7.40;;
14092;SDS011;7123;49.468;10.992;2023-08-17T07:37:15;7.78;;;6.97;;
14092;SDS011;7123;49.468;10.992;2023-08-17T07:39:42;8.55;;;7.13;;
14092;SDS011;7123;49.468;10.992;2023-08-17T07:42:09;7.18;;;6.57;;
14092;SDS011;7123;49.468;10.992;2023-08-17T07:44:36;7.75;;;6.80;;
14092;SDS011;7123;49.468;10.992;2023-08-17T07:47:05;12.25;;;6.75;;
14092;SDS011;7123;49.468;10.992;2023-08-17T07:49:32;8.65;;;6.10;;
14092;SDS011;7123;49.468;10.992;2023-08-17T07:51:59;13.98;;;7.30;;
14092;SDS011;7123;49.468;10.992;2023-08-17T07:54:26;9.68;;;7.10;;
14092;SDS011;7123;49.468;10.992;2023-08-17T07:56:52;9.75;;;7.00;;
14092;SDS011;7123;49.468;10.992;2023-08-17T07:59:19;8.73;;;6.60;;
14092;SDS011;7123;49.468;10.992;2023-08-17T08:01:46;8.63;;;6.57;;
14092;SDS011;7123;49.468;10.992;2023-08-17T08:04:13;7.15;;;6.30;;
14092;SDS011;7123;49.468;10.992;2023-08-17T08:06:39;7.70;;;6.13;;
14092;SDS011;7123;49.468;10.992;2023-08-17T08:09:06;7.00;;;6.32;;
14092;SDS011;7123;49.468;10.992;2023-08-17T08:11:33;6.72;;;6.28;;
14092;SDS011;7123;49.468;10.992;2023-08-17T08:14:00;7.50;;;6.90;;
14092;SDS011;7123;49.468;10.992;2023-08-17T08:16:27;8.48;;;6.53;;
14092;SDS011;7123;49.468;10.992;2023-08-17T08:18:57;7.65;;;6.95;;
14092;SDS011;7123;49.468;10.992;2023-08-17T08:21:24;7.55;;;6.53;;
14092;SDS011;7123;49.468;10.992;2023-08-17T08:23:52;7.65;;;6.85;;
14092;SDS011;7123;49.468;10.992;2023-08-17T08:26:19;7.93;;;6.90;;
14092;SDS011;7123;49.468;10.992;2023-08-17T08:28:46;7.13;;;6.50;;
14092;SDS011;7123;49.468;10.992;2023-08-17T08:31:12;7.88;;;7.07;;
14092;SDS011;7123;49.468;10.992;2023-08-17T08:33:39;7.30;;;6.65;;
14092;SDS011;7123;49.468;10.992;2023-08-17T08:36:06;7.40;;;6.30;;
14092;SDS011;7123;49.468;10.992;2023-08-17T08:38:32;10.18;;;6.18;;
14092;SDS011;7123;49.468;10.992;2023-08-17T08:40:59;7.45;;;6.75;;
14092;SDS011;7123;49.468;10.992;2023-08-17T08:43:28;7.20;;;6.47;;
14092;SDS011;7123;49.468;10.992;2023-08-17T08:45:55;7.25;;;6.43;;
14092;SDS011;7123;49.468;10.992;2023-08-17T08:48:24;7.00;;;6.40;;
14092;SDS011;7123;49.468;10.992;2023-08-17T08:50:54;7.47;;;6.88;;
14092;SDS011;7123;49.468;10.992;2023-08-17T08:53:43;7.30;;;6.60;;
14092;SDS011;7123;49.468;10.992;2023-08-17T08:56:12;7.65;;;6.95;;
14092;SDS011;7123;49.468;10.992;2023-08-17T08:58:39;7.80;;;7.07;;
14092;SDS011;7123;49.468;10.992;2023-08-17T09:01:08;7.57;;;6.75;;
14092;SDS011;7123;49.468;10.992;2023-08-17T09:03:37;7.40;;;6.80;;
14092;SDS011;7123;49.468;10.992;2023-08-17T09:06:04;7.57;;;6.97;;
14092;SDS011;7123;49.468;10.992;2023-08-17T09:08:31;7.70;;;7.00;;
14092;SDS011;7123;49.468;10.992;2023-08-17T09:10:59;7.55;;;6.95;;
14092;SDS011;7123;49.468;10.992;2023-08-17T09:13:26;9.32;;;7.13;;
14092;SDS011;7123;49.468;10.992;2023-08-17T09:15:52;7.95;;;7.20;;
14092;SDS011;7123;49.468;10.992;2023-08-17T09:18:19;7.85;;;7.25;;
14092;SDS011;7123;49.468;10.992;2023-08-17T09:20:46;9.50;;;7.63;;
14092;SDS011;7123;49.468;10.992;2023-08-17T09:23:18;7.55;;;6.85;;
14092;SDS011;7123;49.468;10.992;2023-08-17T09:25:47;9.20;;;7.28;;
14092;SDS011;7123;49.468;10.992;2023-08-17T09:28:16;8.98;;;7.28;;
14092;SDS011;7123;49.468;10.992;2023-08-17T09:33:24;7.47;;;6.88;;
14092;SDS011;7123;49.468;10.992;2023-08-17T09:35:53;8.07;;;7.38;;
14092;SDS011;7123;49.468;10.992;2023-08-17T09:38:25;8.38;;;7.50;;
14092;SDS011;7123;49.468;10.992;2023-08-17T09:40:54;8.15;;;7.55;;
14092;SDS011;7123;49.468;10.992;2023-08-17T09:43:21;9.10;;;7.50;;
14092;SDS011;7123;49.468;10.992;2023-08-17T09:45:48;10.32;;;8.00;;
14092;SDS011;7123;49.468;10.992;2023-08-17T09:48:19;8.18;;;7.55;;
14092;SDS011;7123;49.468;10.992;2023-08-17T09:50:46;8.43;;;7.63;;
14092;SDS011;7123;49.468;10.992;2023-08-17T09:53:15;8.82;;;7.88;;
14092;SDS011;7123;49.468;10.992;2023-08-17T09:55:43;8.57;;;7.88;;
14092;SDS011;7123;49.468;10.992;2023-08-17T09:58:10;8.00;;;7.40;;
14092;SDS011;7123;49.468;10.992;2023-08-17T10:00:45;8.30;;;7.45;;
14092;SDS011;7123;49.468;10.992;2023-08-17T10:03:18;8.48;;;7.70;;
14092;SDS011;7123;49.468;10.992;2023-08-17T10:05:52;8.43;;;7.75;;
14092;SDS011;7123;49.468;10.992;2023-08-17T10:08:24;9.02;;;7.95;;
14092;SDS011;7123;49.468;10.992;2023-08-17T10:10:54;9.10;;;8.40;;
14092;SDS011;7123;49.468;10.992;2023-08-17T10:13:30;9.25;;;7.95;;
14092;SDS011;7123;49.468;10.992;2023-08-17T10:19:04;8.80;;;8.13;;
14092;SDS011;7123;49.468;10.992;2023-08-17T10:21:41;8.25;;;7.60;;
14092;SDS011;7123;49.468;10.992;2023-08-17T10:24:12;7.88;;;7.22;;
14092;SDS011;7123;49.468;10.992;2023-08-17T10:26:39;8.77;;;8.10;;
14092;SDS011;7123;49.468;10.992;2023-08-17T10:29:07;8.63;;;7.70;;
14092;SDS011;7123;49.468;10.992;2023-08-17T10:31:43;7.82;;;7.18;;
14092;SDS011;7123;49.468;10.992;2023-08-17T10:34:12;8.80;;;7.80;;
14092;SDS011;7123;49.468;10.992;2023-08-17T10:36:41;7.78;;;6.85;;
14092;SDS011;7123;49.468;10.992;2023-08-17T10:39:33;8.82;;;7.30;;
14092;SDS011;7123;49.468;10.992;2023-08-17T10:41:57;7.72;;;7.05;;
14092;SDS011;7123;49.468;10.992;2023-08-17T10:49:56;8.88;;;7.10;;
14092;SDS011;7123;49.468;10.992;2023-08-17T10:52:28;7.80;;;7.10;;
14092;SDS011;7123;49.468;10.992;2023-08-17T10:54:59;7.47;;;6.97;;
14092;SDS011;7123;49.468;10.992;2023-08-17T11:00:21;8.07;;;7.38;;
14092;SDS011;7123;49.468;10.992;2023-08-17T11:02:58;7.90;;;7.20;;
14092;SDS011;7123;49.468;10.992;2023-08-17T11:05:44;8.23;;;7.43;;
14092;SDS011;7123;49.468;10.992;2023-08-17T11:08:23;8.57;;;7.88;;
14092;SDS011;7123;49.468;10.992;2023-08-17T11:11:06;7.55;;;6.95;;
14092;SDS011;7123;49.468;10.992;2023-08-17T11:13:39;7.65;;;7.05;;
14092;SDS011;7123;49.468;10.992;2023-08-17T11:16:08;7.43;;;6.80;;
14092;SDS011;7123;49.468;10.992;2023-08-17T11:18:36;8.27;;;7.57;;
14092;SDS011;7123;49.468;10.992;2023-08-17T11:21:04;8.00;;;7.30;;
14092;SDS011;7123;49.468;10.992;2023-08-17T11:23:32;8.07;;;7.30;;
14092;SDS011;7123;49.468;10.992;2023-08-17T11:26:00;8.27;;;7.60;;
14092;SDS011;7123;49.468;10.992;2023-08-17T11:28:29;7.85;;;7.22;;
14092;SDS011;7123;49.468;10.992;2023-08-17T11:31:08;8.05;;;7.25;;
14092;SDS011;7123;49.468;10.992;2023-08-17T11:33:37;7.82;;;7.18;;
14092;SDS011;7123;49.468;10.992;2023-08-17T11:36:06;10.10;;;7.10;;
14092;SDS011;7123;49.468;10.992;2023-08-17T11:38:35;8.02;;;7.15;;
14092;SDS011;7123;49.468;10.992;2023-08-17T11:41:04;7.95;;;6.93;;
14092;SDS011;7123;49.468;10.992;2023-08-17T11:43:31;7.22;;;6.72;;
14092;SDS011;7123;49.468;10.992;2023-08-17T11:45:59;9.45;;;7.57;;
14092;SDS011;7123;49.468;10.992;2023-08-17T11:48:27;8.30;;;7.47;;
14092;SDS011;7123;49.468;10.992;2023-08-17T11:50:55;7.63;;;7.03;;
14092;SDS011;7123;49.468;10.992;2023-08-17T11:53:21;7.40;;;6.85;;
14092;SDS011;7123;49.468;10.992;2023-08-17T11:55:48;8.38;;;7.57;;
14092;SDS011;7123;49.468;10.992;2023-08-17T11:58:35;8.23;;;6.75;;
14092;SDS011;7123;49.468;10.992;2023-08-17T12:01:22;7.65;;;7.05;;
14092;SDS011;7123;49.468;10.992;2023-08-17T12:03:49;7.80;;;7.20;;
14092;SDS011;7123;49.468;10.992;2023-08-17T12:06:16;7.90;;;7.10;;
14092;SDS011;7123;49.468;10.992;2023-08-17T12:08:44;11.98;;;7.60;;
14092;SDS011;7123;49.468;10.992;2023-08-17T12:11:15;7.65;;;6.85;;
14092;SDS011;7123;49.468;10.992;2023-08-17T12:13:48;7.95;;;7.25;;
14092;SDS011;7123;49.468;10.992;2023-08-17T12:16:17;7.50;;;6.90;;
14092;SDS011;7123;49.468;10.992;2023-08-17T12:18:49;9.32;;;6.68;;
14092;SDS011;7123;49.468;10.992;2023-08-17T12:21:19;7.32;;;6.63;;
14092;SDS011;7123;49.468;10.992;2023-08-17T12:23:50;7.55;;;6.85;;
14092;SDS011;7123;49.468;10.992;2023-08-17T12:26:21;7.45;;;6.72;;
14092;SDS011;7123;49.468;10.992;2023-08-17T12:28:49;6.85;;;6.25;;
14092;SDS011;7123;49.468;10.992;2023-08-17T12:31:20;6.97;;;6.47;;
14092;SDS011;7123;49.468;10.992;2023-08-17T12:33:51;8.27;;;6.40;;
14092;SDS011;7123;49.468;10.992;2023-08-17T12:36:19;8.15;;;7.07;;
14092;SDS011;7123;49.468;10.992;2023-08-17T12:38:48;8.60;;;6.78;;
14092;SDS011;7123;49.468;10.992;2023-08-17T12:41:15;9.00;;;7.28;;
14092;SDS011;7123;49.468;10.992;2023-08-17T12:43:42;7.70;;;7.00;;
14092;SDS011;7123;49.468;10.992;2023-08-17T12:46:10;7.30;;;6.35;;
14092;SDS011;7123;49.468;10.992;2023-08-17T12:48:37;6.55;;;6.15;;
14092;SDS011;7123;49.468;10.992;2023-08-17T12:51:05;6.63;;;6.13;;
14092;SDS011;7123;49.468;10.992;2023-08-17T12:53:32;6.78;;;6.18;;
14092;SDS011;7123;49.468;10.992;2023-08-17T12:55:59;7.20;;;6.63;;
14092;SDS011;7123;49.468;10.992;2023-08-17T12:58:26;9.00;;;6.50;;
14092;SDS011;7123;49.468;10.992;2023-08-17T13:00:53;6.82;;;6.25;;
14092;SDS011;7123;49.468;10.992;2023-08-17T13:03:21;7.20;;;6.60;;
14092;SDS011;7123;49.468;10.992;2023-08-17T13:05:48;6.90;;;6.20;;
14092;SDS011;7123;49.468;10.992;2023-08-17T13:08:15;6.90;;;6.40;;
14092;SDS011;7123;49.468;10.992;2023-08-17T13:10:42;7.03;;;6.45;;
14092;SDS011;7123;49.468;10.992;2023-08-17T13:13:09;7.13;;;6.40;;
14092;SDS011;7123;49.468;10.992;2023-08-17T13:15:36;10.07;;;6.13;;
14092;SDS011;7123;49.468;10.992;2023-08-17T13:18:03;6.85;;;6.25;;
14092;SDS011;7123;49.468;10.992;2023-08-17T13:20:31;6.82;;;6.22;;
14092;SDS011;7123;49.468;10.992;2023-08-17T13:22:58;6.45;;;5.75;;
14092;SDS011;7123;49.468;10.992;2023-08-17T13:25:25;6.63;;;5.88;;
14092;SDS011;7123;49.468;10.992;2023-08-17T13:27:52;7.00;;;6.40;;
14092;SDS011;7123;49.468;10.992;2023-08-17T13:30:18;6.97;;;6.40;;
14092;SDS011;7123;49.468;10.992;2023-08-17T13:32:45;6.72;;;6.13;;
14092;SDS011;7123;49.468;10.992;2023-08-17T13:35:13;6.53;;;6.00;;
14092;SDS011;7123;49.468;10.992;2023-08-17T13:37:40;6.95;;;6.45;;
14092;SDS011;7123;49.468;10.992;2023-08-17T13:40:07;6.53;;;5.97;;
14092;SDS011;7123;49.468;10.992;2023-08-17T13:42:35;6.00;;;5.60;;
14092;SDS011;7123;49.468;10.992;2023-08-17T13:45:03;6.20;;;5.70;;
14092;SDS011;7123;49.468;10.992;2023-08-17T13:47:30;6.30;;;5.80;;
14092;SDS011;7123;49.468;10.992;2023-08-17T13:49:56;5.78;;;5.38;;
14092;SDS011;7123;49.468;10.992;2023-08-17T13:52:24;6.43;;;5.82;;
14092;SDS011;7123;49.468;10.992;2023-08-17T13:54:52;6.35;;;5.85;;
14092;SDS011;7123;49.468;10.992;2023-08-17T13:57:18;6.57;;;6.03;;
14092;SDS011;7123;49.468;10.992;2023-08-17T13:59:45;5.95;;;5.55;;
14092;SDS011;7123;49.468;10.992;2023-08-17T14:02:12;6.22;;;5.72;;
14092;SDS011;7123;49.468;10.992;2023-08-17T14:04:39;7.35;;;6.15;;
14092;SDS011;7123;49.468;10.992;2023-08-17T14:07:05;6.63;;;6.13;;
14092;SDS011;7123;49.468;10.992;2023-08-17T14:09:32;6.20;;;5.70;;
14092;SDS011;7123;49.468;10.992;2023-08-17T14:11:59;8.63;;;5.90;;
14092;SDS011;7123;49.468;10.992;2023-08-17T14:14:27;8.70;;;5.80;;
14092;SDS011;7123;49.468;10.992;2023-08-17T14:16:56;6.68;;;6.15;;
14092;SDS011;7123;49.468;10.992;2023-08-17T14:19:24;5.85;;;5.47;;
14092;SDS011;7123;49.468;10.992;2023-08-17T14:21:51;6.35;;;5.95;;
14092;SDS011;7123;49.468;10.992;2023-08-17T14:24:19;6.28;;;5.78;;
14092;SDS011;7123;49.468;10.992;2023-08-17T14:26:46;5.90;;;5.40;;
14092;SDS011;7123;49.468;10.992;2023-08-17T14:29:13;6.90;;;5.80;;
14092;SDS011;7123;49.468;10.992;2023-08-17T14:31:39;6.28;;;5.78;;
14092;SDS011;7123;49.468;10.992;2023-08-17T14:34:06;7.03;;;6.35;;
14092;SDS011;7123;49.468;10.992;2023-08-17T14:36:34;6.80;;;6.20;;
14092;SDS011;7123;49.468;10.992;2023-08-17T14:39:00;6.78;;;6.25;;
14092;SDS011;7123;49.468;10.992;2023-08-17T14:41:27;6.78;;;6.28;;
14092;SDS011;7123;49.468;10.992;2023-08-17T14:43:58;7.50;;;6.88;;
14092;SDS011;7123;49.468;10.992;2023-08-17T14:46:28;6.50;;;6.00;;
14092;SDS011;7123;49.468;10.992;2023-08-17T14:48:56;6.97;;;6.38;;
14092;SDS011;7123;49.468;10.992;2023-08-17T14:51:24;6.72;;;6.22;;
14092;SDS011;7123;49.468;10.992;2023-08-17T14:53:56;8.13;;;6.00;;
14092;SDS011;7123;49.468;10.992;2023-08-17T14:56:23;7.47;;;6.72;;
14092;SDS011;7123;49.468;10.992;2023-08-17T14:58:50;7.75;;;6.70;;
14092;SDS011;7123;49.468;10.992;2023-08-17T15:01:16;6.80;;;6.20;;
14092;SDS011;7123;49.468;10.992;2023-08-17T15:03:44;7.88;;;6.53;;
14092;SDS011;7123;49.468;10.992;2023-08-17T15:06:11;6.80;;;6.30;;
14092;SDS011;7123;49.468;10.992;2023-08-17T15:08:57;7.00;;;6.47;;